C.kormakitis, Cyprus
Current Conditions -  °F | °C
As of 8:20 PM on Thursday 30 Oct 2014 (Local Time) from LCEN Reporting Station
Scattered Clouds Scattered Clouds  
Wind Chill: 16°   Ceiling: Unl
Heat Index: 16°   Visibility: 6mi
Dew Point: 14°   Wind: 6mph
Humidity: 88%   Direction: 230°SW
Pressure: 29.91"   Gusts: NA
Location:  35.35°N, 32.95°E
Report Text: LCEN 301720Z 23005KT 9999 SCT030 16/14 Q1013 NOSIG
Loading
Personal Weather Stations






























Interactive Weather Map
Tropical Storm Tracking
New forecast layout! Learn more

10-Day Weather Forecast

Advertisements
Track Severe Weather on mobile